Time;durP1;ratioP1;P1;durP2;ratioP2;P2;SDS_P1;SDS_P2;PMS_P1;PMS_P2;Temp;Humidity;BMP_temperature;BMP_pressure;BME280_temperature;BME280_humidity;BME280_pressure;Samples;Min_cycle;Max_cycle;Signal;HPM_P1;HPM_P2
2023/03/02 00:01:23;;;;;;;3.85;2.83;;;;;;;6.85;87.60;95152.50;4941940;29;20442;-77
2023/03/02 00:03:48;;;;;;;4.57;3.10;;;;;;;6.90;87.30;95152.78;4956859;28;20411;-77
2023/03/02 00:06:14;;;;;;;3.97;3.33;;;;;;;6.99;87.08;95143.06;4950567;28;21090;-77
2023/03/02 00:08:40;;;;;;;5.93;3.40;;;;;;;7.06;87.25;95152.59;4952181;29;20415;-77
2023/03/02 00:11:05;;;;;;;3.63;2.90;;;;;;;7.03;86.60;95150.34;4956694;28;20210;-78
2023/03/02 00:13:34;;;;;;;3.97;3.40;;;;;;;6.97;86.97;95148.47;4940789;28;20467;-77
2023/03/02 00:16:00;;;;;;;3.88;3.33;;;;;;;7.04;86.98;95161.63;4954043;29;20462;-78
2023/03/02 00:18:25;;;;;;;4.50;3.13;;;;;;;6.94;87.23;95148.00;4950350;28;20460;-78
2023/03/02 00:20:51;;;;;;;3.90;3.37;;;;;;;6.98;86.90;95150.09;4943683;29;20486;-78
2023/03/02 00:23:16;;;;;;;5.43;3.30;;;;;;;7.08;86.62;95134.94;4954933;29;20863;-77
2023/03/02 00:25:42;;;;;;;4.80;3.77;;;;;;;6.95;86.49;95108.56;4948750;28;20874;-77
2023/03/02 00:28:07;;;;;;;5.63;3.97;;;;;;;7.10;86.56;95135.53;4943515;29;20481;-77
2023/03/02 00:30:33;;;;;;;5.63;3.60;;;;;;;7.05;86.59;95137.09;4944967;29;20188;-77
2023/03/02 00:32:58;;;;;;;5.33;3.70;;;;;;;7.02;86.73;95138.25;4952117;29;20430;-77
2023/03/02 00:35:27;;;;;;;5.23;3.70;;;;;;;6.95;87.34;95119.03;4935715;28;20544;-77
2023/03/02 00:37:52;;;;;;;4.93;3.20;;;;;;;6.99;87.09;95125.53;4949625;29;20443;-77
2023/03/02 00:40:18;;;;;;;4.80;3.10;;;;;;;6.91;87.36;95116.97;4946180;28;20476;-77
2023/03/02 00:42:43;;;;;;;4.07;3.17;;;;;;;6.81;87.62;95114.63;4947415;28;20912;-77
2023/03/02 00:45:09;;;;;;;4.47;3.22;;;;;;;6.88;87.90;95120.75;4954509;28;20442;-77
2023/03/02 00:47:35;;;;;;;4.53;3.03;;;;;;;6.82;87.69;95105.78;4946317;28;20479;-77
2023/03/02 00:50:02;;;;;;;3.23;2.60;;;;;;;6.76;87.39;95090.81;4948125;28;20636;-77
2023/03/02 00:52:31;;;;;;;4.45;3.00;;;;;;;6.76;87.97;95109.13;4945186;29;20459;-77
2023/03/02 00:54:56;;;;;;;3.95;3.00;;;;;;;6.60;88.17;95083.97;4942912;29;20799;-77
2023/03/02 00:57:22;;;;;;;4.13;3.28;;;;;;;6.72;87.71;95108.69;4942783;29;20427;-77
2023/03/02 00:59:48;;;;;;;7.20;5.77;;;;;;;6.61;88.36;95101.28;4946541;28;20501;-78
2023/03/02 01:02:13;;;;;;;9.30;6.63;;;;;;;6.52;89.02;95102.34;4941824;28;20246;-77
2023/03/02 01:04:41;;;;;;;11.23;8.03;;;;;;;6.42;89.03;95078.28;4943135;29;20428;-77
2023/03/02 01:07:10;;;;;;;14.48;11.10;;;;;;;6.56;89.10;95087.13;4939143;29;20916;-77
2023/03/02 01:09:36;;;;;;;17.40;13.10;;;;;;;6.43;89.25;95082.50;4953755;28;20427;-77
2023/03/02 01:12:02;;;;;;;19.37;15.03;;;;;;;6.48;88.80;95068.91;4945608;29;20486;-77
2023/03/02 01:14:28;;;;;;;13.60;10.40;;;;;;;6.61;88.76;95082.97;4955341;28;20070;-77
2023/03/02 01:16:54;;;;;;;11.90;8.67;;;;;;;6.58;88.17;95079.88;4944020;28;21063;-78
2023/03/02 01:19:19;;;;;;;6.05;5.03;;;;;;;6.49;88.38;95081.00;4934488;29;20507;-78
2023/03/02 01:21:45;;;;;;;5.27;3.80;;;;;;;6.54;88.31;95083.88;4942573;29;20508;-77
2023/03/02 01:24:11;;;;;;;5.90;4.00;;;;;;;6.43;88.73;95080.72;4953167;29;20441;-77
2023/03/02 01:26:36;;;;;;;3.27;2.40;;;;;;;6.21;88.82;95063.31;4947045;28;20446;-77
2023/03/02 01:29:03;;;;;;;3.38;2.30;;;;;;;6.41;89.21;95084.47;4944563;28;20423;-78
2023/03/02 01:31:29;;;;;;;2.80;2.50;;;;;;;6.30;89.19;95085.75;4934212;29;20504;-77
2023/03/02 01:33:54;;;;;;;2.42;2.03;;;;;;;6.10;89.22;95042.00;4949474;29;20447;-78
2023/03/02 01:36:21;;;;;;;3.55;2.05;;;;;;;6.11;89.10;95026.16;4946432;28;20424;-77
2023/03/02 01:38:47;;;;;;;2.58;2.00;;;;;;;6.21;89.20;95059.88;4953325;28;20427;-78
2023/03/02 01:41:12;;;;;;;2.45;1.95;;;;;;;6.29;89.50;95080.72;4951996;28;20419;-78
2023/03/02 01:43:38;;;;;;;2.20;1.88;;;;;;;6.15;89.68;95082.28;4945889;29;20916;-78
2023/03/02 01:46:08;;;;;;;2.75;2.10;;;;;;;6.22;89.98;95072.78;4938164;28;20429;-77
2023/03/02 01:48:41;;;;;;;2.40;2.00;;;;;;;6.00;90.28;95053.53;4936817;29;20450;-78
2023/03/02 01:51:08;;;;;;;2.60;2.13;;;;;;;6.30;90.24;95071.88;4946822;28;20466;-77
2023/03/02 01:53:36;;;;;;;2.03;1.73;;;;;;;6.27;88.97;95051.31;4936159;29;20420;-78
2023/03/02 01:56:02;;;;;;;2.08;1.80;;;;;;;6.30;89.21;95051.78;4953198;28;20462;-78
2023/03/02 01:58:33;;;;;;;1.97;1.60;;;;;;;6.41;89.05;95051.31;4952966;28;20482;-78
2023/03/02 02:00:59;;;;;;;1.83;1.55;;;;;;;6.54;88.15;95062.94;4941282;28;20799;-77
2023/03/02 02:03:27;;;;;;;3.15;2.10;;;;;;;6.51;88.00;95058.06;4933480;29;20940;-77
2023/03/02 02:06:22;;;;;;;2.05;1.80;;;;;;;6.38;88.15;95053.50;4926921;29;20499;-77
2023/03/02 02:08:48;;;;;;;1.80;1.65;;;;;;;6.42;88.10;95060.78;4951388;29;20415;-77
2023/03/02 02:11:14;;;;;;;3.67;1.52;;;;;;;6.43;88.29;95062.41;4953058;28;20474;-77
2023/03/02 02:13:41;;;;;;;1.67;1.42;;;;;;;6.34;89.22;95060.88;4944424;28;20434;-77
2023/03/02 02:16:06;;;;;;;2.30;1.70;;;;;;;6.31;88.94;95053.38;4941031;28;20425;-77
2023/03/02 02:18:36;;;;;;;2.45;1.80;;;;;;;6.40;88.92;95056.72;4933198;29;20429;-77
2023/03/02 02:21:02;;;;;;;2.08;1.80;;;;;;;6.47;89.02;95062.06;4941722;29;20456;-77
2023/03/02 02:23:37;;;;;;;1.70;1.60;;;;;;;6.51;88.49;95068.53;4947090;29;20524;-76
2023/03/02 02:26:11;;;;;;;1.98;1.70;;;;;;;6.35;89.12;95069.53;4944007;29;20423;-77
2023/03/02 02:28:42;;;;;;;2.57;2.10;;;;;;;6.27;89.89;95069.59;4952091;28;20438;-77
2023/03/02 02:31:19;;;;;;;2.15;1.88;;;;;;;6.14;90.21;95044.06;4933620;28;20447;-82
2023/03/02 02:33:51;;;;;;;2.58;1.80;;;;;;;6.36;89.72;95061.50;4933642;28;20796;-75
2023/03/02 02:36:24;;;;;;;2.22;1.83;;;;;;;6.43;89.58;95067.63;4952664;29;20439;-76
2023/03/02 02:38:53;;;;;;;2.78;1.90;;;;;;;6.52;88.92;95062.31;4944046;28;20426;-77
2023/03/02 02:41:27;;;;;;;2.47;2.00;;;;;;;6.44;88.88;95056.19;4934026;28;20420;-76
2023/03/02 02:43:53;;;;;;;2.47;2.00;;;;;;;6.30;89.15;95019.59;4932961;29;20417;-76
2023/03/02 02:46:19;;;;;;;2.35;1.90;;;;;;;6.28;89.33;95061.59;4950952;29;20424;-76
2023/03/02 02:48:44;;;;;;;2.15;1.95;;;;;;;6.23;89.58;95065.72;4947708;28;20509;-77
2023/03/02 02:51:15;;;;;;;2.85;2.00;;;;;;;5.97;90.31;95032.97;4934256;29;20801;-76
2023/03/02 02:53:46;;;;;;;2.40;1.90;;;;;;;6.02;90.81;95059.41;4926668;29;20778;-77
2023/03/02 02:56:14;;;;;;;3.00;2.13;;;;;;;6.07;90.60;95051.00;4932836;28;20461;-76
2023/03/02 02:58:44;;;;;;;2.97;1.83;;;;;;;6.13;90.13;95055.56;4949708;29;20774;-76
2023/03/02 03:01:14;;;;;;;2.35;1.83;;;;;;;6.16;89.87;95054.34;4948483;29;20426;-76
2023/03/02 03:03:49;;;;;;;2.58;1.75;;;;;;;6.26;89.58;95055.72;4951748;28;20418;-77
2023/03/02 03:06:19;;;;;;;2.28;1.88;;;;;;;6.25;89.55;95054.09;4943496;28;20427;-76
2023/03/02 03:08:45;;;;;;;2.17;1.90;;;;;;;6.29;89.48;95049.34;4937593;28;20421;-76
2023/03/02 03:11:18;;;;;;;2.77;1.77;;;;;;;6.05;89.17;95048.56;4949416;29;20442;-77
2023/03/02 03:13:45;;;;;;;3.05;1.90;;;;;;;6.09;89.79;95043.00;4948218;28;20995;-77
2023/03/02 03:16:15;;;;;;;2.65;1.90;;;;;;;5.84;90.48;95042.38;4956267;28;20454;-76
2023/03/02 03:18:45;;;;;;;2.45;1.80;;;;;;;5.95;90.64;95042.00;4949703;28;20417;-77
2023/03/02 03:21:11;;;;;;;2.65;1.80;;;;;;;6.04;90.11;95046.16;4953363;29;20421;-77
2023/03/02 03:23:37;;;;;;;2.15;1.67;;;;;;;6.09;90.29;95045.63;4936513;29;20420;-77
2023/03/02 03:26:05;;;;;;;3.10;1.67;;;;;;;5.89;89.59;95022.59;4952372;29;20426;-77
2023/03/02 03:28:31;;;;;;;2.17;1.80;;;;;;;5.95;90.42;95045.44;4955552;28;20994;-76
2023/03/02 03:30:57;;;;;;;2.33;1.80;;;;;;;5.82;89.80;95026.06;4942076;28;20440;-78
2023/03/02 03:33:22;;;;;;;4.03;1.83;;;;;;;5.90;89.77;95034.69;4953869;29;20792;-78
2023/03/02 03:35:47;;;;;;;1.43;1.30;;;;;;;6.04;90.26;95046.16;4947585;29;20257;-77
2023/03/02 03:38:13;;;;;;;2.03;1.80;;;;;;;6.06;89.79;95049.38;4941041;28;20431;-77
2023/03/02 03:40:38;;;;;;;2.07;1.67;;;;;;;6.19;89.69;95043.56;4952615;29;20422;-77
2023/03/02 03:43:04;;;;;;;3.90;2.03;;;;;;;6.29;88.64;95044.13;4942182;29;20420;-77
2023/03/02 03:45:29;;;;;;;2.00;1.80;;;;;;;6.25;88.76;95048.88;4947428;28;20594;-77
2023/03/02 03:47:55;;;;;;;1.77;1.67;;;;;;;6.22;89.08;95043.22;4943602;28;20405;-78
2023/03/02 03:50:21;;;;;;;2.85;1.88;;;;;;;6.26;88.46;95037.44;4944328;29;20428;-78
2023/03/02 03:52:46;;;;;;;2.47;1.80;;;;;;;6.21;89.20;95039.78;4944932;29;20855;-78
2023/03/02 03:55:12;;;;;;;2.17;1.83;;;;;;;6.26;88.76;95044.47;4949965;29;20442;-78
2023/03/02 03:57:37;;;;;;;2.08;1.70;;;;;;;6.26;88.46;95049.69;4947671;28;20935;-79
2023/03/02 04:00:09;;;;;;;2.57;1.83;;;;;;;6.28;89.03;95051.13;4944492;29;20416;-77
2023/03/02 04:02:36;;;;;;;1.77;1.50;;;;;;;6.37;88.05;95047.44;4945307;29;20246;-77
2023/03/02 04:05:05;;;;;;;2.08;1.70;;;;;;;6.15;88.40;95005.69;4935980;29;20492;-77
2023/03/02 04:07:31;;;;;;;2.20;1.83;;;;;;;6.32;88.56;95049.78;4950670;29;20893;-78
2023/03/02 04:10:02;;;;;;;3.00;1.88;;;;;;;6.33;88.73;95053.19;4944159;28;20442;-78
2023/03/02 04:12:33;;;;;;;1.85;1.65;;;;;;;6.37;89.02;95052.69;4947350;29;20840;-78
2023/03/02 04:14:59;;;;;;;2.42;1.67;;;;;;;6.33;88.99;95045.34;4934697;29;20433;-78
2023/03/02 04:17:25;;;;;;;1.50;1.40;;;;;;;6.37;88.96;95049.25;4945029;28;20802;-78
2023/03/02 04:19:50;;;;;;;1.92;1.73;;;;;;;6.39;89.23;95045.47;4955014;28;20828;-77
2023/03/02 04:22:16;;;;;;;3.30;2.00;;;;;;;6.29;89.65;95041.50;4939025;28;20460;-78
2023/03/02 04:24:42;;;;;;;1.40;1.30;;;;;;;6.17;89.52;95012.38;4946357;29;20421;-80
2023/03/02 04:27:08;;;;;;;2.42;1.70;;;;;;;5.96;90.10;94997.41;4943189;29;20503;-82
2023/03/02 04:29:35;;;;;;;2.00;1.60;;;;;;;6.33;90.29;95040.94;4944134;28;20439;-82
2023/03/02 04:32:00;;;;;;;2.03;1.80;;;;;;;6.22;89.81;95011.84;4945246;28;21934;-79
2023/03/02 04:34:26;;;;;;;1.83;1.60;;;;;;;6.40;89.59;95047.06;4940815;28;20215;-80
2023/03/02 04:36:51;;;;;;;2.38;1.60;;;;;;;6.36;89.68;95045.81;4944561;28;20432;-80
2023/03/02 04:39:18;;;;;;;2.83;2.10;;;;;;;6.24;90.62;95051.66;4938681;29;20842;-79
2023/03/02 04:41:45;;;;;;;2.30;2.10;;;;;;;6.01;91.08;95049.13;4934899;29;20478;-79
2023/03/02 04:44:12;;;;;;;3.07;2.63;;;;;;;5.91;91.92;95054.59;4938130;29;20190;-78
2023/03/02 04:46:38;;;;;;;3.28;2.40;;;;;;;5.99;91.88;95064.97;4935800;29;20432;-78
2023/03/02 04:49:04;;;;;;;3.28;2.97;;;;;;;6.07;91.86;95064.06;4944142;29;20800;-78
2023/03/02 04:51:33;;;;;;;3.37;2.77;;;;;;;6.00;91.85;95063.16;4937280;29;20199;-78
2023/03/02 04:54:01;;;;;;;3.37;3.07;;;;;;;5.96;92.04;95057.50;4935807;29;20425;-78
2023/03/02 04:56:27;;;;;;;4.70;3.23;;;;;;;5.99;92.92;95058.94;4947135;29;20175;-79
2023/03/02 04:58:53;;;;;;;4.00;2.90;;;;;;;6.06;92.55;95062.44;4942781;29;20230;-79
2023/03/02 05:01:20;;;;;;;3.90;2.80;;;;;;;6.13;92.16;95058.16;4944193;29;20262;-79
2023/03/02 05:03:45;;;;;;;3.50;2.90;;;;;;;6.09;92.16;95063.91;4939304;29;20178;-79
2023/03/02 05:06:12;;;;;;;3.40;3.08;;;;;;;6.03;91.78;95050.56;4945883;28;20419;-81
2023/03/02 05:08:38;;;;;;;2.87;2.30;;;;;;;6.06;91.78;95063.25;4945292;29;20159;-81
2023/03/02 05:11:06;;;;;;;2.90;2.60;;;;;;;6.07;91.91;95064.88;4942506;29;20444;-79
2023/03/02 05:13:32;;;;;;;4.32;2.80;;;;;;;6.01;92.22;95063.00;4954407;28;20800;-81
2023/03/02 05:15:58;;;;;;;3.75;3.00;;;;;;;5.91;91.98;95044.16;4953857;28;20415;-81
2023/03/02 05:18:26;;;;;;;5.03;3.03;;;;;;;6.10;92.61;95070.75;4938956;29;20955;-82
2023/03/02 05:20:53;;;;;;;3.25;2.53;;;;;;;5.75;92.13;95022.56;4948300;28;20807;-80
2023/03/02 05:23:22;;;;;;;3.47;3.08;;;;;;;5.94;93.23;95071.72;4942204;28;20451;-81
2023/03/02 05:25:50;;;;;;;4.47;2.57;;;;;;;6.04;92.97;95077.53;4935664;29;20184;-80
2023/03/02 05:28:17;;;;;;;2.80;2.50;;;;;;;5.94;92.84;95051.63;4945074;29;20326;-80
2023/03/02 05:30:42;;;;;;;3.00;2.58;;;;;;;6.00;93.59;95077.03;4938733;29;20539;-79
2023/03/02 05:33:07;;;;;;;5.00;2.57;;;;;;;6.18;93.12;95078.53;4946975;28;20911;-79
2023/03/02 05:35:34;;;;;;;4.18;2.90;;;;;;;6.19;92.28;95086.19;4945142;28;20529;-80
2023/03/02 05:37:59;;;;;;;3.83;2.97;;;;;;;6.20;92.13;95085.19;4947320;28;20472;-79
2023/03/02 05:40:25;;;;;;;3.03;2.73;;;;;;;6.17;91.62;95055.97;4944341;29;20447;-79
2023/03/02 05:42:50;;;;;;;3.43;2.70;;;;;;;6.04;91.43;95033.91;4941021;29;20417;-79
2023/03/02 05:45:20;;;;;;;4.60;3.60;;;;;;;6.21;91.40;95071.16;4950480;29;20416;-78
2023/03/02 05:47:46;;;;;;;4.45;3.15;;;;;;;6.18;90.81;95075.91;4932833;29;20426;-81
2023/03/02 05:50:12;;;;;;;4.43;3.28;;;;;;;6.15;91.59;95071.84;4944389;28;20423;-80
2023/03/02 05:52:37;;;;;;;4.07;3.50;;;;;;;5.80;90.76;95013.19;4944365;29;20944;-80
2023/03/02 05:55:03;;;;;;;4.82;3.22;;;;;;;6.20;91.17;95077.38;4948719;28;20416;-80
2023/03/02 05:57:28;;;;;;;4.30;3.10;;;;;;;6.24;91.53;95081.22;4935640;29;20171;-80
2023/03/02 05:59:53;;;;;;;3.43;2.60;;;;;;;6.18;91.16;95087.19;4943345;29;20548;-79
2023/03/02 06:02:19;;;;;;;7.93;3.40;;;;;;;6.21;92.04;95089.44;4945782;28;20421;-82
2023/03/02 06:04:44;;;;;;;6.60;2.80;;;;;;;6.09;91.76;95088.25;4954475;28;20242;-80
2023/03/02 06:07:10;;;;;;;5.00;3.70;;;;;;;6.02;91.92;95069.03;4948494;28;20429;-79
2023/03/02 06:09:39;;;;;;;5.50;3.30;;;;;;;6.17;91.91;95082.94;4942013;29;20179;-79
2023/03/02 06:12:06;;;;;;;5.07;3.25;;;;;;;6.26;91.67;95086.28;4943443;29;20440;-79
2023/03/02 06:14:32;;;;;;;4.80;3.42;;;;;;;6.24;90.83;95089.06;4948541;28;20788;-79
2023/03/02 06:16:57;;;;;;;3.70;3.17;;;;;;;6.16;90.98;95081.31;4945993;28;20174;-79
2023/03/02 06:19:23;;;;;;;4.85;3.28;;;;;;;6.04;90.41;95059.22;4944572;29;20446;-78
2023/03/02 06:21:48;;;;;;;3.77;3.20;;;;;;;6.38;89.98;95106.59;4937948;29;20175;-78
2023/03/02 06:24:13;;;;;;;4.17;3.30;;;;;;;6.27;89.57;95080.88;4947791;28;21336;-79
2023/03/02 06:26:39;;;;;;;3.50;3.03;;;;;;;6.32;90.06;95085.56;4946424;28;20187;-79
2023/03/02 06:29:05;;;;;;;3.78;2.90;;;;;;;6.44;89.89;95097.22;4937535;28;20428;-80
2023/03/02 06:31:30;;;;;;;4.60;3.10;;;;;;;6.40;89.53;95098.53;4949007;28;20190;-79
2023/03/02 06:33:56;;;;;;;3.13;2.40;;;;;;;6.45;89.28;95104.06;4942869;29;20226;-77
2023/03/02 06:36:22;;;;;;;4.03;3.13;;;;;;;6.43;89.83;95113.88;4945733;28;20257;-77
2023/03/02 06:38:47;;;;;;;3.30;2.77;;;;;;;6.14;90.17;95092.94;4939253;28;20641;-78
2023/03/02 06:41:13;;;;;;;8.10;3.33;;;;;;;6.23;90.91;95112.75;4941322;29;20171;-77
2023/03/02 06:43:39;;;;;;;3.90;3.23;;;;;;;6.07;91.16;95080.56;4942525;29;20179;-78
2023/03/02 06:46:04;;;;;;;4.30;3.57;;;;;;;6.20;91.38;95106.09;4942916;29;20179;-79
2023/03/02 06:48:29;;;;;;;4.10;3.00;;;;;;;6.27;91.54;95098.38;4945719;29;20189;-78
2023/03/02 06:50:55;;;;;;;5.70;3.30;;;;;;;6.24;91.39;95101.31;4948842;29;20210;-78
2023/03/02 06:53:22;;;;;;;5.90;4.30;;;;;;;6.04;91.09;95067.88;4943393;28;20178;-78
2023/03/02 06:55:48;;;;;;;4.60;3.60;;;;;;;6.06;91.44;95081.56;4942895;29;20178;-79
2023/03/02 06:58:13;;;;;;;5.53;3.77;;;;;;;6.13;91.92;95101.78;4946517;28;20226;-78
2023/03/02 07:00:39;;;;;;;3.63;3.13;;;;;;;6.15;92.32;95092.75;4942983;29;20175;-78
2023/03/02 07:03:05;;;;;;;3.80;3.33;;;;;;;6.13;92.08;95096.53;4939525;29;20175;-78
2023/03/02 07:05:34;;;;;;;6.20;3.93;;;;;;;6.14;91.84;95103.41;4932570;29;20633;-78
2023/03/02 07:08:00;;;;;;;4.93;3.43;;;;;;;6.18;92.34;95105.47;4941775;29;20711;-78
2023/03/02 07:10:25;;;;;;;5.73;3.60;;;;;;;6.27;91.91;95098.38;4932777;29;20172;-78
2023/03/02 07:12:52;;;;;;;4.67;3.50;;;;;;;6.36;91.51;95098.09;4942423;29;20242;-79
2023/03/02 07:15:18;;;;;;;5.10;3.50;;;;;;;6.19;90.55;95060.06;4943278;29;20568;-77
2023/03/02 07:17:44;;;;;;;4.23;3.50;;;;;;;6.23;90.54;95079.59;4945726;28;20191;-78
2023/03/02 07:20:16;;;;;;;6.50;3.73;;;;;;;6.41;90.44;95111.44;4945256;28;20174;-77
2023/03/02 07:22:41;;;;;;;7.20;4.50;;;;;;;6.41;90.57;95103.59;4945290;28;20893;-77
2023/03/02 07:25:08;;;;;;;5.70;3.77;;;;;;;6.33;90.73;95103.69;4945172;28;20182;-77
2023/03/02 07:27:33;;;;;;;5.93;4.00;;;;;;;6.44;90.27;95100.63;4934432;28;20184;-78
2023/03/02 07:29:59;;;;;;;5.83;4.10;;;;;;;6.47;90.46;95099.47;4935789;29;20179;-79
2023/03/02 07:32:25;;;;;;;5.87;3.97;;;;;;;6.43;90.11;95104.25;4934125;29;20218;-78
2023/03/02 07:34:50;;;;;;;6.27;3.87;;;;;;;6.36;90.18;95100.72;4941978;29;20222;-79
2023/03/02 07:37:15;;;;;;;4.83;3.87;;;;;;;6.33;89.58;95103.69;4939631;29;20189;-79
2023/03/02 07:39:41;;;;;;;5.83;3.60;;;;;;;6.10;90.64;95060.31;4949561;29;20185;-79
2023/03/02 07:42:07;;;;;;;7.57;3.73;;;;;;;6.35;90.57;95113.97;4945233;28;20177;-78
2023/03/02 07:44:33;;;;;;;5.90;3.93;;;;;;;6.42;90.55;95107.84;4945258;29;20178;-77
2023/03/02 07:46:59;;;;;;;4.70;3.77;;;;;;;6.27;90.14;95078.25;4937501;28;20211;-77
2023/03/02 07:49:24;;;;;;;4.17;3.13;;;;;;;6.39;91.59;95096.94;4937790;29;20273;-78
2023/03/02 07:51:50;;;;;;;5.33;3.20;;;;;;;6.47;92.18;95104.72;4953431;28;20191;-80
2023/03/02 07:54:15;;;;;;;5.00;3.60;;;;;;;6.47;91.09;95096.03;4933155;28;20183;-80
2023/03/02 07:56:41;;;;;;;4.60;3.33;;;;;;;6.53;89.80;95109.22;4944648;29;20178;-76
2023/03/02 07:59:06;;;;;;;7.00;3.53;;;;;;;6.57;89.74;95107.88;4939931;29;20617;-79
2023/03/02 08:01:31;;;;;;;6.30;3.00;;;;;;;6.54;90.01;95108.22;4931980;29;20183;-77
2023/03/02 08:03:57;;;;;;;4.70;3.40;;;;;;;6.54;90.24;95104.78;4931481;29;20581;-77
2023/03/02 08:06:22;;;;;;;4.43;3.17;;;;;;;6.54;89.80;95102.19;4921339;29;20240;-77
2023/03/02 08:08:48;;;;;;;4.97;3.33;;;;;;;6.51;90.33;95090.25;4933716;29;20273;-77
2023/03/02 08:11:16;;;;;;;3.73;2.97;;;;;;;6.64;90.34;95092.25;4937713;29;20209;-78
2023/03/02 08:13:42;;;;;;;5.33;3.60;;;;;;;6.68;89.85;95101.38;4924591;28;20242;-79
2023/03/02 08:16:10;;;;;;;5.77;3.73;;;;;;;6.75;88.77;95105.69;4945386;29;20641;-79
2023/03/02 08:18:36;;;;;;;6.07;3.80;;;;;;;6.61;89.17;95071.69;4947170;29;20219;-79
2023/03/02 08:21:02;;;;;;;7.17;4.00;;;;;;;6.71;89.19;95096.59;4948118;28;20174;-80
2023/03/02 08:23:27;;;;;;;6.43;3.90;;;;;;;6.74;88.47;95098.84;4948412;28;20178;-80
2023/03/02 08:25:53;;;;;;;4.63;3.43;;;;;;;6.63;88.69;95088.84;4937500;29;20179;-79
2023/03/02 08:28:20;;;;;;;8.20;3.83;;;;;;;6.64;89.28;95092.25;4937043;29;20214;-79
2023/03/02 08:30:57;;;;;;;4.97;3.90;;;;;;;6.55;89.48;95094.16;4946970;29;20323;-80
2023/03/02 08:33:24;;;;;;;5.17;3.97;;;;;;;6.34;89.47;95073.94;4944984;29;20190;-82
2023/03/02 08:36:04;;;;;;;5.07;3.90;;;;;;;6.52;90.34;95096.31;4954412;29;20274;-83
2023/03/02 08:38:31;;;;;;;6.17;3.83;;;;;;;6.70;90.54;95094.97;4954843;29;20193;-83
2023/03/02 08:40:57;;;;;;;5.70;3.87;;;;;;;6.87;89.86;95090.34;4956067;28;20182;-83
2023/03/02 08:43:24;;;;;;;5.83;3.93;;;;;;;6.88;89.25;95101.63;4955946;28;20714;-83
2023/03/02 08:45:55;;;;;;;5.27;3.70;;;;;;;6.89;88.69;95093.59;4956236;28;20186;-83
2023/03/02 08:48:21;;;;;;;4.70;3.67;;;;;;;6.55;88.22;95027.97;4954609;29;20676;-83
2023/03/02 08:51:05;;;;;;;6.13;3.93;;;;;;;6.60;87.90;95047.34;4954463;28;20244;-83
2023/03/02 08:53:34;;;;;;;5.73;3.80;;;;;;;6.85;87.68;95096.75;4956299;28;20151;-83
2023/03/02 08:56:00;;;;;;;5.60;4.07;;;;;;;6.87;88.62;95092.16;4954514;29;20304;-82
2023/03/02 08:58:26;;;;;;;7.27;4.27;;;;;;;6.70;89.46;95073.22;4955604;28;20558;-79
2023/03/02 09:00:51;;;;;;;6.50;4.03;;;;;;;6.76;89.42;95083.78;4955778;28;20198;-79
2023/03/02 09:03:17;;;;;;;5.57;3.97;;;;;;;6.77;89.39;95087.19;4955761;28;20715;-79
2023/03/02 09:05:42;;;;;;;7.60;5.20;;;;;;;6.54;90.14;95055.91;4954385;28;20162;-78
2023/03/02 09:08:08;;;;;;;6.20;4.70;;;;;;;6.73;90.40;95076.31;4955373;28;20286;-78
2023/03/02 09:10:33;;;;;;;6.87;4.83;;;;;;;6.73;90.34;95059.78;4955819;28;20265;-78
2023/03/02 09:12:59;;;;;;;7.43;4.97;;;;;;;7.02;90.85;95067.59;4956029;28;20202;-79
2023/03/02 09:15:24;;;;;;;7.30;4.67;;;;;;;7.04;90.54;95057.75;4956133;28;20197;-79
2023/03/02 09:17:50;;;;;;;7.17;5.13;;;;;;;7.18;89.57;95080.44;4955300;28;20990;-79
2023/03/02 09:20:15;;;;;;;8.37;5.30;;;;;;;7.16;89.47;95089.50;4955637;28;20174;-79
2023/03/02 09:22:47;;;;;;;8.00;5.43;;;;;;;7.07;89.61;95075.72;4955587;28;20257;-79
2023/03/02 09:25:13;;;;;;;6.43;5.07;;;;;;;7.10;89.00;95057.00;4953194;28;20178;-79
2023/03/02 09:27:38;;;;;;;7.70;5.20;;;;;;;7.21;89.06;95071.44;4916966;29;20190;-79
2023/03/02 09:30:05;;;;;;;8.13;4.93;;;;;;;7.32;89.01;95043.97;4920627;29;20175;-81
2023/03/02 09:32:30;;;;;;;6.57;4.40;;;;;;;7.43;88.48;95082.75;4935204;29;20704;-78
2023/03/02 09:34:57;;;;;;;6.33;5.17;;;;;;;7.35;87.75;95083.66;4935202;29;20250;-78
2023/03/02 09:37:23;;;;;;;6.20;4.37;;;;;;;7.32;87.40;95081.44;4935243;29;20183;-79
2023/03/02 09:39:48;;;;;;;7.23;5.20;;;;;;;7.48;88.41;95077.75;4935408;29;20183;-81
2023/03/02 09:42:27;;;;;;;7.50;4.97;;;;;;;7.60;87.27;95076.28;4935742;29;20171;-81
2023/03/02 09:45:12;;;;;;;8.37;5.27;;;;;;;7.61;87.07;95085.75;4934358;29;20609;-80
2023/03/02 09:47:38;;;;;;;6.20;4.47;;;;;;;7.58;86.81;95065.19;4936011;29;20560;-80
2023/03/02 09:50:09;;;;;;;5.80;4.13;;;;;;;7.56;86.35;95075.84;4945889;29;20183;-78
2023/03/02 09:52:39;;;;;;;6.23;4.77;;;;;;;7.65;87.22;95073.91;4950265;29;20245;-82
2023/03/02 09:55:22;;;;;;;6.47;4.40;;;;;;;7.73;87.00;95070.34;4943750;29;20175;-81
2023/03/02 09:57:49;;;;;;;5.03;4.07;;;;;;;7.68;85.80;95086.63;4954976;28;20158;-81
2023/03/02 10:00:17;;;;;;;6.70;4.30;;;;;;;7.61;86.37;95083.13;4954875;28;20155;-81
2023/03/02 10:02:53;;;;;;;6.17;4.37;;;;;;;7.53;85.56;95059.66;4946731;29;20207;-82
2023/03/02 10:05:32;;;;;;;7.60;5.40;;;;;;;7.65;86.54;95078.31;4933549;29;20167;-82
2023/03/02 10:07:58;;;;;;;8.70;5.30;;;;;;;7.36;87.12;95079.22;4940449;29;20711;-82
2023/03/02 10:10:35;;;;;;;5.43;4.10;;;;;;;7.41;86.62;95077.69;4944577;28;20274;-82
2023/03/02 10:13:25;;;;;;;6.53;4.67;;;;;;;7.05;86.45;95035.00;4943001;29;20235;-82
2023/03/02 10:16:29;;;;;;;5.63;4.17;;;;;;;6.91;87.71;95023.59;4933995;29;20696;-82
2023/03/02 10:19:05;;;;;;;7.13;4.77;;;;;;;7.07;86.71;95044.31;4934148;28;20653;-83
2023/03/02 10:21:38;;;;;;;5.53;4.17;;;;;;;7.18;87.18;95079.63;4934467;29;20159;-83
2023/03/02 10:24:28;;;;;;;5.70;4.70;;;;;;;7.17;87.24;95091.94;4935216;29;20151;-83
2023/03/02 10:26:56;;;;;;;6.37;4.30;;;;;;;7.09;87.37;95078.94;4947276;29;20264;-81
2023/03/02 10:29:27;;;;;;;6.17;4.50;;;;;;;7.24;87.34;95075.50;4954442;28;20174;-81
2023/03/02 10:32:00;;;;;;;6.33;4.67;;;;;;;7.34;86.48;95073.41;4953999;28;20683;-82
2023/03/02 10:34:30;;;;;;;5.83;4.50;;;;;;;7.45;87.03;95072.88;4952753;29;20766;-80
2023/03/02 10:36:56;;;;;;;7.27;4.80;;;;;;;7.58;84.84;95075.66;4954353;28;20169;-79
2023/03/02 10:39:22;;;;;;;7.80;5.50;;;;;;;7.48;84.23;95062.84;4954340;28;20171;-80
2023/03/02 10:42:01;;;;;;;8.13;5.40;;;;;;;7.17;85.02;95031.75;4954378;28;20173;-80
2023/03/02 10:44:45;;;;;;;6.57;5.07;;;;;;;7.43;85.42;95069.66;4954047;28;20163;-80
2023/03/02 10:47:26;;;;;;;7.17;4.90;;;;;;;7.44;85.32;95068.63;4954244;28;20171;-80
2023/03/02 10:49:54;;;;;;;6.73;3.93;;;;;;;6.92;85.34;95017.34;4954219;28;20628;-81
2023/03/02 10:52:24;;;;;;;6.10;4.50;;;;;;;7.16;86.10;95060.72;4954360;28;20205;-80
2023/03/02 10:55:01;;;;;;;4.63;4.03;;;;;;;7.23;86.11;95066.00;4945128;28;20167;-80
2023/03/02 10:57:35;;;;;;;9.40;4.43;;;;;;;7.30;86.10;95059.84;4934610;29;20155;-80
2023/03/02 11:00:23;;;;;;;7.03;3.93;;;;;;;7.19;85.83;95060.31;4934936;29;20206;-81
2023/03/02 11:03:00;;;;;;;6.23;4.17;;;;;;;7.05;86.19;95053.31;4934795;29;20541;-82
2023/03/02 11:05:37;;;;;;;8.57;4.43;;;;;;;7.02;87.09;95051.06;4934740;29;20241;-82
2023/03/02 11:08:15;;;;;;;5.60;4.43;;;;;;;6.85;87.22;95013.84;4931083;29;20640;-81
2023/03/02 11:11:00;;;;;;;5.23;4.10;;;;;;;7.27;86.73;95038.44;4934687;29;20569;-81
2023/03/02 11:13:33;;;;;;;3.97;3.57;;;;;;;7.23;85.30;95003.19;4934514;29;20187;-80
2023/03/02 11:16:17;;;;;;;8.47;4.27;;;;;;;7.26;84.27;94987.13;4934459;29;20676;-80
2023/03/02 11:18:53;;;;;;;7.73;3.90;;;;;;;7.55;83.66;95036.72;4934044;29;20214;-80
2023/03/02 11:21:26;;;;;;;4.40;3.60;;;;;;;7.67;83.78;95026.56;4934228;29;20182;-80
2023/03/02 11:23:58;;;;;;;5.00;3.70;;;;;;;7.73;82.84;95046.75;4934476;29;20246;-81
2023/03/02 11:26:27;;;;;;;5.80;3.90;;;;;;;7.70;82.98;95028.78;4934761;29;20183;-80
2023/03/02 11:28:57;;;;;;;4.50;3.20;;;;;;;7.72;82.32;95034.66;4936656;29;20183;-81
2023/03/02 11:31:43;;;;;;;5.27;3.37;;;;;;;7.31;83.28;94989.97;4923473;29;20688;-80
2023/03/02 11:34:20;;;;;;;4.40;3.40;;;;;;;7.66;82.56;95027.56;4918607;29;20311;-81
2023/03/02 11:37:08;;;;;;;4.37;3.13;;;;;;;7.50;82.49;95011.09;4918987;29;20170;-81
2023/03/02 11:40:03;;;;;;;4.83;3.30;;;;;;;7.64;82.34;95024.31;4919198;29;20552;-81
2023/03/02 11:42:33;;;;;;;4.80;3.57;;;;;;;7.50;81.89;95012.91;4918835;29;20160;-81
2023/03/02 11:45:26;;;;;;;5.37;3.30;;;;;;;7.43;82.84;95006.81;4918825;29;20167;-81
2023/03/02 11:48:26;;;;;;;6.33;3.80;;;;;;;7.47;82.60;95015.91;4918635;29;20176;-81